X  Chiuso Dati meteorologici dell'aviazione (METAR)     LZPP Piešťany Airport
Temperatura
13°C Temperatura
7°C Punto di rugiada
67% Umidità



Vento
11 KM/O
7 MPH
3 M/S
6 KTS



130°
SE
Condizioni attuali

Unknown Unknown
Pressione 1013.88 (hPa) - 29.94 (inHg)
Visibilità 6 (miglio) - 9.7 (km)
Aeroporto
Codice-Aeroporto LZPP

Posizione: Piešťany Airport
Distanza: 31 (km)

Metar:
LZPP 292100Z AUTO 13006KT 080V140 9999 13/07 Q1014

Ore: 29-02-2024 22:00 CET